Time;durP1;ratioP1;P1;durP2;ratioP2;P2;SDS_P1;SDS_P2;PMS_P1;PMS_P2;Temp;Humidity;BMP_temperature;BMP_pressure;BME280_temperature;BME280_humidity;BME280_pressure;Samples;Min_cycle;Max_cycle;Signal;HPM_P1;HPM_P2
2023/11/04 00:00:17;;;;;;;;;2.00;2.00;;;;;-143.90;99.87;73987.78;4977442;27;102459;-79
2023/11/04 00:02:43;;;;;;;;;2.75;1.75;;;;;-143.90;100.00;73987.78;4967214;28;104201;-80
2023/11/04 00:05:10;;;;;;;;;1.00;1.00;;;;;-143.90;99.84;73991.91;4968249;28;102645;-80
2023/11/04 00:07:37;;;;;;;;;1.00;1.00;;;;;-143.90;100.00;73985.72;4968953;28;102213;-80
2023/11/04 00:10:05;;;;;;;;;2.00;2.00;;;;;-143.90;100.00;73993.97;4970981;28;102528;-83
2023/11/04 00:12:32;;;;;;;;;1.75;1.75;;;;;-143.90;99.94;74006.38;4969049;28;103840;-79
2023/11/04 00:14:59;;;;;;;;;2.00;2.00;;;;;-143.90;100.00;74002.25;4984559;28;102589;-81
2023/11/04 00:17:26;;;;;;;;;2.00;2.00;;;;;-143.90;100.00;74010.50;4971429;27;102162;-82
2023/11/04 00:19:54;;;;;;;;;2.00;1.00;;;;;-143.90;100.00;74018.78;4967396;28;102980;-79
2023/11/04 00:22:20;;;;;;;;;1.50;1.00;;;;;-143.90;100.00;74022.91;4979414;28;103531;-80
2023/11/04 00:24:49;;;;;;;;;1.25;1.00;;;;;-143.90;100.00;74014.66;4975032;28;103508;-81
2023/11/04 00:27:16;;;;;;;;;1.00;1.00;;;;;-143.90;100.00;74014.66;4970433;27;102466;-81
2023/11/04 00:29:43;;;;;;;;;2.25;2.00;;;;;-143.90;100.00;74020.84;4970353;27;102662;-80
2023/11/04 00:32:10;;;;;;;;;3.25;3.00;;;;;-143.90;100.00;74022.91;4981970;28;104316;-78
2023/11/04 00:34:36;;;;;;;;;2.00;1.00;;;;;-143.90;100.00;74027.03;4965510;27;102372;-77
2023/11/04 00:37:03;;;;;;;;;1.75;1.00;;;;;-143.90;100.00;74027.03;4972908;28;102347;-80
2023/11/04 00:39:30;;;;;;;;;3.50;3.50;;;;;-143.90;100.00;74035.31;4970046;28;102942;-79
2023/11/04 00:41:57;;;;;;;;;1.00;1.00;;;;;-143.90;100.00;74039.44;4986831;27;103958;-79
2023/11/04 00:44:25;;;;;;;;;2.50;2.00;;;;;-143.90;100.00;74045.66;4983694;27;102399;-80
2023/11/04 00:46:53;;;;;;;;;1.25;1.25;;;;;-143.90;100.00;74051.84;4977236;27;102106;-78
2023/11/04 00:49:19;;;;;;;;;1.75;1.25;;;;;-143.90;100.00;74058.06;4979444;27;103553;-80
2023/11/04 00:51:47;;;;;;;;;1.00;1.00;;;;;-143.90;100.00;74051.84;4974523;28;103973;-79
2023/11/04 00:54:14;;;;;;;;;1.00;1.00;;;;;-143.90;100.00;74062.19;4983299;28;102493;-80
2023/11/04 00:56:41;;;;;;;;;1.00;1.00;;;;;-143.90;100.00;74060.13;4985146;27;102183;-82
2023/11/04 00:59:08;;;;;;;;;2.00;2.00;;;;;-143.90;100.00;74062.19;4983418;27;103440;-78
2023/11/04 01:01:35;;;;;;;;;3.00;1.00;;;;;-143.90;100.00;74074.59;4981887;27;104133;-79
2023/11/04 01:04:01;;;;;;;;;1.00;1.00;;;;;-143.90;100.00;74072.50;4978257;27;102374;-81
2023/11/04 01:06:28;;;;;;;;;3.50;1.00;;;;;-143.90;100.00;74066.31;4982982;27;102344;-80
2023/11/04 01:08:55;;;;;;;;;1.00;1.00;;;;;-143.90;100.00;74066.31;4967435;27;102494;-81
2023/11/04 01:11:21;;;;;;;;;1.00;1.00;;;;;-143.90;100.00;74066.31;4978758;27;104359;-81
2023/11/04 01:13:48;;;;;;;;;0.50;0.50;;;;;-143.90;100.00;74068.38;4978488;27;102382;-82
2023/11/04 01:16:15;;;;;;;;;0.75;0.75;;;;;-143.90;100.00;74064.25;4976763;28;103392;-83
2023/11/04 01:18:41;;;;;;;;;1.00;1.00;;;;;-143.90;100.00;74060.13;4983556;28;102028;-82
2023/11/04 01:21:08;;;;;;;;;2.00;1.75;;;;;-143.90;100.00;74055.97;4974676;27;104131;-82
2023/11/04 01:23:36;;;;;;;;;0.00;0.00;;;;;-143.90;100.00;74058.06;4976333;27;103085;-79
2023/11/04 01:26:03;;;;;;;;;1.25;1.00;;;;;-143.90;100.00;74064.25;4965418;28;102159;-81
2023/11/04 01:28:30;;;;;;;;;1.50;0.00;;;;;-143.90;100.00;74060.13;4972942;27;102047;-78
2023/11/04 01:30:56;;;;;;;;;1.00;1.00;;;;;-143.90;100.00;74070.44;4972516;27;104077;-81
2023/11/04 01:33:26;;;;;;;;;1.00;1.00;;;;;-143.90;100.00;74072.50;4975028;28;104382;-80
2023/11/04 01:35:53;;;;;;;;;0.25;0.25;;;;;-143.90;100.00;74078.72;4964358;27;102222;-78
2023/11/04 01:38:19;;;;;;;;;2.00;1.00;;;;;-143.90;100.00;74076.66;4961969;28;102063;-81
2023/11/04 01:40:54;;;;;;;;;1.00;1.00;;;;;-143.90;100.00;74080.78;4966014;27;104062;-81
2023/11/04 01:43:24;;;;;;;;;1.00;1.00;;;;;-143.90;100.00;74093.19;4971495;27;102480;-80
2023/11/04 01:46:20;;;;;;;;;1.50;1.50;;;;;-143.90;100.00;74093.19;4964208;28;102206;-80
2023/11/04 01:48:47;;;;;;;;;2.00;1.00;;;;;-143.90;100.00;74101.44;4960720;28;102132;-80
2023/11/04 01:51:14;;;;;;;;;1.00;0.00;;;;;-143.90;100.00;74107.66;4978667;27;104097;-80
2023/11/04 01:53:47;;;;;;;;;1.00;1.00;;;;;-143.90;100.00;74107.66;4973024;28;102432;-82
2023/11/04 01:56:18;;;;;;;;;0.75;0.75;;;;;-143.90;100.00;74107.66;4973273;28;102564;-82
2023/11/04 01:58:46;;;;;;;;;0.00;0.00;;;;;-143.90;100.00;74115.91;4968839;28;104265;-80
2023/11/04 02:01:14;;;;;;;;;1.00;0.00;;;;;-143.90;100.00;74113.84;4959463;27;103991;-82
2023/11/04 02:03:41;;;;;;;;;1.50;0.00;;;;;-143.90;100.00;74122.13;4973618;27;102638;-81
2023/11/04 02:06:08;;;;;;;;;2.00;1.00;;;;;-143.90;100.00;74122.13;4972475;27;102015;-81
2023/11/04 02:08:34;;;;;;;;;1.00;1.00;;;;;-143.90;100.00;74124.19;4975516;27;102436;-81
2023/11/04 02:11:02;;;;;;;;;0.00;0.00;;;;;-143.90;100.00;74122.13;4981070;27;104334;-81
2023/11/04 02:13:32;;;;;;;;;1.50;1.00;;;;;-143.90;100.00;74136.59;4969799;28;102393;-80
2023/11/04 02:15:59;;;;;;;;;0.00;0.00;;;;;-143.90;100.00;74146.91;4969250;27;102582;-82
2023/11/04 02:18:27;;;;;;;;;1.00;0.50;;;;;-143.90;100.00;74149.00;4974541;28;102579;-80
2023/11/04 02:20:58;;;;;;;;;0.00;0.00;;;;;-143.90;100.00;74149.00;4970061;28;104009;-82
2023/11/04 02:23:26;;;;;;;;;1.00;1.00;;;;;-143.90;100.00;74151.06;4962381;27;102531;-79
2023/11/04 02:25:53;;;;;;;;;1.00;0.75;;;;;-143.90;100.00;74151.06;4962472;28;103455;-81
2023/11/04 02:28:21;;;;;;;;;0.75;0.75;;;;;-143.90;100.00;74153.13;4978158;27;105081;-80
2023/11/04 02:30:48;;;;;;;;;1.00;1.00;;;;;-143.90;100.00;74157.25;4972099;27;104118;-79
2023/11/04 02:33:15;;;;;;;;;0.25;0.25;;;;;-143.90;100.00;74146.91;4971061;28;102306;-81
2023/11/04 02:35:43;;;;;;;;;1.00;1.00;;;;;-143.90;100.00;74142.78;4973354;28;102030;-80
2023/11/04 02:38:09;;;;;;;;;1.00;1.00;;;;;-143.90;100.00;74146.91;4978239;27;101961;-80
2023/11/04 02:40:36;;;;;;;;;2.00;1.00;;;;;-143.90;100.00;74144.84;4973601;27;104192;-81
2023/11/04 02:43:02;;;;;;;;;1.75;1.75;;;;;-143.90;100.00;74142.78;4973957;27;102248;-80
2023/11/04 02:45:29;;;;;;;;;1.00;1.00;;;;;-143.90;100.00;74134.53;4966206;27;102634;-82
2023/11/04 02:47:56;;;;;;;;;1.00;1.00;;;;;-143.90;100.00;74142.78;4966166;27;102552;-82
2023/11/04 02:50:22;;;;;;;;;0.25;0.25;;;;;-143.90;100.00;74132.44;4968680;28;103799;-81
2023/11/04 02:52:49;;;;;;;;;0.00;0.00;;;;;-143.90;100.00;74126.25;4976124;27;101974;-82
2023/11/04 02:55:15;;;;;;;;;1.00;0.75;;;;;-143.90;100.00;74124.19;4969268;28;102527;-80
2023/11/04 02:57:42;;;;;;;;;2.00;1.25;;;;;-143.90;100.00;74120.06;4971547;28;102070;-81
2023/11/04 03:00:09;;;;;;;;;2.00;2.00;;;;;-143.90;100.00;74122.13;4969066;28;104485;-81
2023/11/04 03:02:36;;;;;;;;;2.00;1.00;;;;;-143.90;100.00;74113.84;4972212;28;102353;-81
2023/11/04 03:05:04;;;;;;;;;2.00;2.00;;;;;-143.90;100.00;74118.00;4986754;27;102044;-81
2023/11/04 03:07:31;;;;;;;;;1.00;1.00;;;;;-143.90;100.00;74118.00;4969203;28;104243;-78
2023/11/04 03:09:59;;;;;;;;;1.00;1.00;;;;;-143.90;100.00;74109.72;4972183;28;104118;-79
2023/11/04 03:12:25;;;;;;;;;1.50;1.50;;;;;-143.90;100.00;74111.78;4966313;28;102600;-81
2023/11/04 03:14:52;;;;;;;;;1.00;1.00;;;;;-143.90;100.00;74120.06;4975615;27;103517;-82
2023/11/04 03:17:19;;;;;;;;;1.50;1.00;;;;;-143.90;100.00;74105.59;4972907;28;102260;-81
2023/11/04 03:19:45;;;;;;;;;2.00;1.00;;;;;-143.90;99.58;74109.72;4979946;28;104376;-79
2023/11/04 03:22:12;;;;;;;;;1.00;1.00;;;;;-143.90;99.74;74113.84;4972443;28;103782;-83
2023/11/04 03:24:43;;;;;;;;;1.00;1.00;;;;;-143.90;99.67;74107.66;4979758;27;102604;-81
2023/11/04 03:27:12;;;;;;;;;2.00;1.00;;;;;-143.90;99.09;74109.72;4987401;28;103269;-81
2023/11/04 03:29:39;;;;;;;;;1.00;1.00;;;;;-143.90;99.28;74105.59;4983081;28;103118;-82
2023/11/04 03:32:09;;;;;;;;;2.00;2.00;;;;;-143.90;99.52;74097.31;4973690;28;102322;-81
2023/11/04 03:34:36;;;;;;;;;0.00;0.00;;;;;-143.90;99.30;74101.44;4969650;27;102213;-84
2023/11/04 03:37:03;;;;;;;;;1.00;1.00;;;;;-143.90;98.74;74095.25;4973439;28;102392;-81
2023/11/04 03:39:30;;;;;;;;;1.00;1.00;;;;;-143.90;97.90;74103.53;4972313;28;104064;-80
2023/11/04 03:41:57;;;;;;;;;0.00;0.00;;;;;-143.90;99.02;74101.44;4979159;27;102041;-81
2023/11/04 03:44:23;;;;;;;;;3.00;2.00;;;;;-143.90;97.86;74105.59;4974899;28;102370;-82
2023/11/04 03:46:50;;;;;;;;;1.00;1.00;;;;;-143.90;98.69;74095.25;4982579;27;102025;-81
2023/11/04 03:49:17;;;;;;;;;1.00;1.00;;;;;-143.90;98.00;74095.25;4984736;27;104045;-81
2023/11/04 03:51:44;;;;;;;;;1.00;1.00;;;;;-143.90;97.70;74095.25;4978274;28;102053;-82
2023/11/04 03:54:10;;;;;;;;;1.00;0.50;;;;;-143.90;97.97;74086.97;4976719;28;101963;-80
2023/11/04 03:56:37;;;;;;;;;0.00;0.00;;;;;-143.90;97.52;74089.06;4970434;28;102179;-79
2023/11/04 03:59:04;;;;;;;;;2.00;2.00;;;;;-143.90;97.95;74095.25;4973544;27;104411;-79
2023/11/04 04:01:40;;;;;;;;;1.75;1.00;;;;;-143.90;97.62;74097.31;4971897;28;102576;-77
2023/11/04 04:04:07;;;;;;;;;1.75;1.00;;;;;-143.90;96.89;74103.53;4980066;27;101985;-79
2023/11/04 04:06:35;;;;;;;;;1.00;1.00;;;;;-143.90;97.16;74097.31;4969944;28;102363;-81
2023/11/04 04:09:03;;;;;;;;;2.00;1.25;;;;;-143.90;97.27;74097.31;4978978;27;103973;-81
2023/11/04 04:11:30;;;;;;;;;1.50;1.50;;;;;-143.90;96.99;74097.31;4978622;28;101932;-81
2023/11/04 04:13:56;;;;;;;;;1.75;1.50;;;;;-143.90;96.90;74101.44;4962090;28;102046;-81
2023/11/04 04:16:23;;;;;;;;;1.25;1.00;;;;;-143.90;96.57;74097.31;4970496;28;102419;-81
2023/11/04 04:18:50;;;;;;;;;1.75;1.50;;;;;-143.90;96.34;74097.31;4970036;28;104005;-82
2023/11/04 04:21:17;;;;;;;;;2.25;1.50;;;;;-143.90;96.11;74097.31;4984073;27;101925;-82
2023/11/04 04:23:44;;;;;;;;;2.00;2.00;;;;;-143.90;96.11;74097.31;4985294;27;102305;-81
2023/11/04 04:26:21;;;;;;;;;1.25;1.00;;;;;-143.90;96.53;74089.06;4979027;28;102687;-80
2023/11/04 04:28:47;;;;;;;;;1.50;1.50;;;;;-143.90;96.28;74093.19;4969974;27;104263;-81
2023/11/04 04:31:14;;;;;;;;;1.00;1.00;;;;;-143.90;96.43;74089.06;4977461;28;102072;-80
2023/11/04 04:33:41;;;;;;;;;2.00;2.00;;;;;-143.90;96.49;74091.13;4961720;28;102092;-81
2023/11/04 04:36:08;;;;;;;;;2.00;2.00;;;;;-143.90;96.64;74089.06;4974590;28;101993;-80
2023/11/04 04:38:36;;;;;;;;;1.00;1.00;;;;;-143.90;96.38;74105.59;4977520;27;104288;-82
2023/11/04 04:41:03;;;;;;;;;1.00;0.25;;;;;-143.90;96.41;74109.72;4966897;28;102264;-79
2023/11/04 04:43:29;;;;;;;;;1.00;1.00;;;;;-143.90;96.31;74105.59;4971092;27;102070;-83
2023/11/04 04:45:56;;;;;;;;;1.00;1.00;;;;;-143.90;96.72;74118.00;4975067;28;102315;-82
2023/11/04 04:48:23;;;;;;;;;0.75;0.00;;;;;-143.90;96.41;74122.13;4975652;28;104107;-81
2023/11/04 04:50:50;;;;;;;;;1.00;1.00;;;;;-143.90;96.33;74118.00;4970222;28;106057;-81
2023/11/04 04:53:17;;;;;;;;;1.00;1.00;;;;;-143.90;96.18;74126.25;4966468;28;101980;-82
2023/11/04 04:55:43;;;;;;;;;2.00;1.00;;;;;-143.90;96.69;74124.19;4972649;28;102187;-82
2023/11/04 04:58:11;;;;;;;;;2.00;1.00;;;;;-143.90;96.57;74130.38;4978649;28;103999;-81
2023/11/04 05:00:38;;;;;;;;;0.50;0.50;;;;;-143.90;96.24;74134.53;4972963;28;102182;-82
2023/11/04 05:03:05;;;;;;;;;0.00;0.00;;;;;-143.90;96.27;74134.53;4973976;28;102266;-83
2023/11/04 05:05:36;;;;;;;;;1.00;0.25;;;;;-143.90;96.05;74138.66;4967104;28;102610;-82
2023/11/04 05:08:03;;;;;;;;;0.25;0.25;;;;;-143.90;96.49;74134.53;4975018;28;103996;-81
2023/11/04 05:10:29;;;;;;;;;0.00;0.00;;;;;-143.90;96.42;74138.66;4971469;28;102473;-81
2023/11/04 05:12:56;;;;;;;;;0.00;0.00;;;;;-143.90;96.78;74134.53;4977333;27;102461;-81
2023/11/04 05:15:22;;;;;;;;;0.00;0.00;;;;;-143.90;96.93;74146.91;4982266;28;102597;-82
2023/11/04 05:17:49;;;;;;;;;0.00;0.00;;;;;-143.90;96.92;74155.19;4974205;27;105769;-81
2023/11/04 05:20:16;;;;;;;;;0.00;0.00;;;;;-143.90;97.31;74163.47;4975398;28;102771;-81
2023/11/04 05:22:42;;;;;;;;;0.00;0.00;;;;;-143.90;97.54;74177.94;4973380;28;102064;-81
2023/11/04 05:25:09;;;;;;;;;0.00;0.00;;;;;-143.90;98.13;74188.25;4976511;28;102054;-82
2023/11/04 05:27:36;;;;;;;;;0.00;0.00;;;;;-143.90;98.42;74196.53;4975148;28;104370;-81
2023/11/04 05:30:05;;;;;;;;;0.00;0.00;;;;;-143.90;99.18;74208.94;4979176;28;102414;-82
2023/11/04 05:32:33;;;;;;;;;0.25;0.25;;;;;-143.90;99.49;74225.47;4976301;27;102075;-81
2023/11/04 05:35:00;;;;;;;;;1.00;1.00;;;;;-143.90;100.00;74242.00;4977950;27;102239;-83
2023/11/04 05:37:26;;;;;;;;;1.00;1.00;;;;;-143.90;99.81;74248.19;4972431;28;108856;-84
2023/11/04 05:39:53;;;;;;;;;1.00;1.00;;;;;-143.90;99.63;74246.13;4970916;28;103613;-83
2023/11/04 05:42:20;;;;;;;;;1.25;1.00;;;;;-143.90;99.33;74250.25;4975727;28;102651;-83
2023/11/04 05:44:47;;;;;;;;;0.50;0.50;;;;;-143.90;99.18;74254.41;4974091;27;102498;-83
2023/11/04 05:47:13;;;;;;;;;0.25;0.00;;;;;-143.90;99.13;74248.19;4969693;28;104166;-82
2023/11/04 05:49:40;;;;;;;;;0.00;0.00;;;;;-143.90;99.36;74254.41;4954137;27;102305;-81
2023/11/04 05:52:07;;;;;;;;;1.25;1.00;;;;;-143.90;99.44;74250.25;4974403;28;102001;-83
2023/11/04 05:54:33;;;;;;;;;1.00;1.00;;;;;-143.90;99.57;74254.41;4973006;28;102599;-82
2023/11/04 05:57:00;;;;;;;;;0.00;0.00;;;;;-143.90;99.28;74248.19;4971520;27;104148;-81
2023/11/04 05:59:27;;;;;;;;;0.00;0.00;;;;;-143.90;99.37;74252.34;4975104;28;102619;-81
2023/11/04 06:01:53;;;;;;;;;0.00;0.00;;;;;-143.90;99.49;74239.94;4985705;27;102183;-81
2023/11/04 06:04:20;;;;;;;;;0.25;0.25;;;;;-143.90;98.83;74237.88;4965015;28;102111;-81
2023/11/04 06:06:47;;;;;;;;;0.00;0.00;;;;;-143.90;99.18;74233.72;4975508;28;103741;-82
2023/11/04 06:09:13;;;;;;;;;2.00;1.25;;;;;-143.90;99.02;74229.59;4982659;28;103698;-81
2023/11/04 06:11:40;;;;;;;;;2.75;2.75;;;;;-143.90;98.44;74225.47;4980924;28;102484;-80
2023/11/04 06:14:07;;;;;;;;;2.00;2.00;;;;;-143.90;97.95;74217.19;4970275;28;102478;-82
2023/11/04 06:16:34;;;;;;;;;1.00;1.00;;;;;-143.90;97.62;74208.94;4975124;28;104132;-81
2023/11/04 06:19:01;;;;;;;;;2.00;1.00;;;;;-143.90;97.25;74202.72;4974547;28;102160;-82
2023/11/04 06:21:28;;;;;;;;;2.75;1.75;;;;;-143.90;97.05;74200.66;4985108;27;102321;-80
2023/11/04 06:23:55;;;;;;;;;1.50;1.00;;;;;-143.90;96.85;74198.59;4979527;28;102252;-82
2023/11/04 06:26:22;;;;;;;;;1.75;1.00;;;;;-143.90;97.22;74208.94;4982826;28;104193;-84
2023/11/04 06:28:49;;;;;;;;;2.00;2.00;;;;;-143.90;97.24;74217.19;4979377;28;101843;-84
2023/11/04 06:31:19;;;;;;;;;1.25;1.25;;;;;-143.90;97.34;74208.94;4980419;27;102406;-82
2023/11/04 06:33:46;;;;;;;;;1.25;1.00;;;;;-143.90;97.13;74211.00;4973258;28;102470;-81
2023/11/04 06:36:14;;;;;;;;;1.75;1.00;;;;;-143.90;97.06;74213.06;4987937;28;104183;-84
2023/11/04 06:38:41;;;;;;;;;3.00;1.25;;;;;-143.90;97.57;74217.19;4968265;28;103123;-82
2023/11/04 06:41:13;;;;;;;;;1.50;1.50;;;;;-143.90;97.87;74221.31;4982867;28;102504;-83
2023/11/04 06:43:40;;;;;;;;;1.25;1.25;;;;;-143.90;97.88;74217.19;4976581;28;102424;-83
2023/11/04 06:46:08;;;;;;;;;1.50;1.00;;;;;-143.90;97.86;74217.19;4969876;28;104045;-82
2023/11/04 06:48:35;;;;;;;;;1.00;1.00;;;;;-143.90;98.14;74213.06;4965543;28;102851;-81
2023/11/04 06:51:02;;;;;;;;;2.00;2.00;;;;;-143.90;98.63;74221.31;4967257;28;103085;-82
2023/11/04 06:53:29;;;;;;;;;1.00;1.00;;;;;-143.90;98.04;74217.19;4969515;28;101993;-81
2023/11/04 06:55:56;;;;;;;;;3.50;2.00;;;;;-143.90;98.58;74213.06;4974003;28;104050;-82
2023/11/04 06:58:22;;;;;;;;;3.00;3.00;;;;;-143.90;98.33;74219.25;4962032;28;102568;-82
2023/11/04 07:00:50;;;;;;;;;4.00;4.00;;;;;-143.90;98.27;74213.06;4972195;27;102175;-82
2023/11/04 07:03:17;;;;;;;;;3.00;3.00;;;;;-143.90;98.45;74213.06;4973436;28;102396;-83
2023/11/04 07:05:44;;;;;;;;;4.00;4.00;;;;;-143.90;98.29;74217.19;4977480;27;103946;-80
2023/11/04 07:08:15;;;;;;;;;4.50;4.00;;;;;-143.90;98.21;74200.66;4970146;28;102117;-82
2023/11/04 07:10:42;;;;;;;;;2.25;2.25;;;;;-143.90;98.16;74200.66;4959787;28;102669;-81
2023/11/04 07:13:17;;;;;;;;;4.00;2.50;;;;;-143.90;97.88;74194.47;4948701;28;102362;-82
2023/11/04 07:15:46;;;;;;;;;2.00;2.00;;;;;-143.90;97.53;74188.25;4957293;28;103911;-83
2023/11/04 07:18:14;;;;;;;;;4.50;2.50;;;;;-143.90;97.94;74190.31;4964710;27;102536;-82
2023/11/04 07:20:41;;;;;;;;;2.25;2.00;;;;;-143.90;97.21;74196.53;4946561;28;102120;-82
2023/11/04 07:23:10;;;;;;;;;2.00;2.00;;;;;-143.90;97.43;74196.53;4965726;28;102071;-81
2023/11/04 07:25:38;;;;;;;;;2.00;2.00;;;;;-143.90;97.62;74204.78;4966642;28;104392;-82
2023/11/04 07:28:08;;;;;;;;;2.75;2.00;;;;;-143.90;97.78;74202.72;4955639;27;102197;-81
2023/11/04 07:30:36;;;;;;;;;2.75;2.00;;;;;-143.90;97.97;74204.78;4973473;28;102544;-82
2023/11/04 07:33:02;;;;;;;;;3.25;2.25;;;;;-143.90;97.69;74206.88;4981319;28;102801;-80
2023/11/04 07:35:29;;;;;;;;;4.00;2.00;;;;;-143.90;98.16;74206.88;4982316;27;108810;-80
2023/11/04 07:37:56;;;;;;;;;2.50;2.00;;;;;-143.90;98.27;74213.06;4965316;28;102002;-83
2023/11/04 07:40:26;;;;;;;;;3.00;3.00;;;;;-143.90;97.62;74211.00;4965779;28;102053;-83
2023/11/04 07:42:52;;;;;;;;;1.00;1.00;;;;;-143.90;97.50;74206.88;4974723;27;109209;-82
2023/11/04 07:45:19;;;;;;;;;4.50;4.50;;;;;-143.90;98.50;74215.13;4970080;27;103983;-80
2023/11/04 07:47:46;;;;;;;;;1.00;0.00;;;;;-143.90;98.14;74215.13;4964682;28;102327;-83
2023/11/04 07:50:13;;;;;;;;;2.25;2.25;;;;;-143.90;98.60;74215.13;4980655;28;101963;-81
2023/11/04 07:52:44;;;;;;;;;2.50;2.00;;;;;-143.90;98.79;74213.06;4966554;28;101877;-81
2023/11/04 07:55:24;;;;;;;;;4.00;2.00;;;;;-143.90;98.60;74213.06;4967237;28;104073;-82
2023/11/04 07:57:52;;;;;;;;;2.00;2.00;;;;;-143.90;98.44;74211.00;4969266;28;102866;-82
2023/11/04 08:00:19;;;;;;;;;2.00;1.75;;;;;-143.90;98.68;74202.72;4971660;28;102045;-82
2023/11/04 08:02:47;;;;;;;;;4.00;3.00;;;;;-143.90;98.44;74208.94;4970681;28;102532;-83
2023/11/04 08:05:14;;;;;;;;;1.00;1.00;;;;;-143.90;98.46;74208.94;4961628;27;103998;-82
2023/11/04 08:07:41;;;;;;;;;2.00;2.00;;;;;-143.90;98.62;74202.72;4966804;28;102719;-80
2023/11/04 08:10:08;;;;;;;;;2.50;2.00;;;;;-143.90;98.67;74180.00;4974036;27;102545;-82
2023/11/04 08:12:36;;;;;;;;;1.75;1.75;;;;;-143.90;97.85;74163.47;4967186;28;102145;-81
2023/11/04 08:15:06;;;;;;;;;3.00;2.50;;;;;-143.90;96.94;74149.00;4973416;28;104086;-82
2023/11/04 08:17:33;;;;;;;;;2.00;2.00;;;;;-143.90;96.31;74130.38;4967240;28;102242;-80
2023/11/04 08:20:08;;;;;;;;;2.75;2.75;;;;;-143.90;96.42;74109.72;4968786;27;103028;-82
2023/11/04 08:22:41;;;;;;;;;4.00;2.00;;;;;-143.90;94.47;74089.06;4972087;28;102309;-81
2023/11/04 08:25:09;;;;;;;;;2.50;2.00;;;;;-143.90;93.34;74070.44;4967624;28;104355;-81
2023/11/04 08:27:36;;;;;;;;;1.00;1.00;;;;;-143.90;93.30;74064.25;4977259;28;102316;-82
2023/11/04 08:30:04;;;;;;;;;3.50;2.50;;;;;-143.90;93.79;74047.72;4972072;28;102370;-81
2023/11/04 08:32:31;;;;;;;;;2.25;1.50;;;;;-143.90;92.70;74027.03;4977408;28;102571;-83
2023/11/04 08:34:58;;;;;;;;;2.75;2.00;;;;;-143.90;90.32;74024.97;4960378;28;104152;-82
2023/11/04 08:37:28;;;;;;;;;1.75;1.00;;;;;-143.90;89.81;74006.38;4975116;28;102089;-84
2023/11/04 08:39:55;;;;;;;;;2.00;2.00;;;;;-143.90;89.11;74004.31;2937820;28;10095960;-82
2023/11/04 08:42:23;;;;;;;;;2.00;2.00;;;;;-143.90;87.83;73979.50;4974254;27;102647;-83
2023/11/04 08:44:50;;;;;;;;;2.00;1.00;;;;;-143.90;88.91;73977.44;4979670;28;102289;-82
2023/11/04 08:47:17;;;;;;;;;2.00;2.00;;;;;-143.90;88.69;73965.03;4967621;27;104102;-80
2023/11/04 08:49:47;;;;;;;;;3.75;2.00;;;;;-143.90;87.87;73960.91;4972866;28;104166;-81
2023/11/04 08:52:14;;;;;;;;;3.50;2.00;;;;;-143.90;85.65;73956.78;4982918;27;101984;-81
2023/11/04 08:54:41;;;;;;;;;1.75;1.75;;;;;-143.90;86.15;73971.25;4979515;27;103298;-78
2023/11/04 08:57:08;;;;;;;;;2.00;2.00;;;;;-143.90;85.88;73983.66;4958731;27;103999;-81
2023/11/04 08:59:34;;;;;;;;;1.00;1.00;;;;;-143.90;85.17;73989.84;4964250;27;102027;-81
2023/11/04 09:02:01;;;;;;;;;2.00;2.00;;;;;-143.90;84.18;74002.25;4969252;27;102525;-81
2023/11/04 09:04:28;;;;;;;;;2.00;1.00;;;;;-143.90;85.41;74002.25;4972537;28;102526;-83
2023/11/04 09:06:55;;;;;;;;;1.25;1.25;;;;;-143.90;84.68;73983.66;4963318;28;104014;-82
2023/11/04 09:09:23;;;;;;;;;2.75;2.00;;;;;-143.90;85.81;73971.25;4971490;27;102712;-82
2023/11/04 09:11:49;;;;;;;;;1.25;1.00;;;;;-143.90;85.62;73948.50;4966748;28;102686;-83
2023/11/04 09:14:19;;;;;;;;;3.00;2.00;;;;;-143.90;84.66;73934.03;4979758;27;102499;-84
2023/11/04 09:16:46;;;;;;;;;4.25;4.00;;;;;-143.90;84.03;73923.72;4977474;27;104018;-81
2023/11/04 09:19:12;;;;;;;;;3.75;3.00;;;;;-143.90;84.32;73913.38;4978778;27;102396;-84
2023/11/04 09:21:39;;;;;;;;;2.00;2.00;;;;;-143.90;82.88;73898.91;4984250;27;102099;-83
2023/11/04 09:24:07;;;;;;;;;4.00;4.00;;;;;-143.90;81.59;73890.63;4967216;27;102604;-82
2023/11/04 09:26:33;;;;;;;;;2.25;1.25;;;;;-143.90;81.86;73865.84;4978867;27;104035;-81
2023/11/04 09:29:00;;;;;;;;;3.50;2.00;;;;;-143.90;80.77;73857.56;4969942;28;102351;-81
2023/11/04 09:31:26;;;;;;;;;2.00;2.00;;;;;-143.90;78.67;73847.25;4970930;27;101975;-81
2023/11/04 09:33:54;;;;;;;;;2.25;1.75;;;;;-143.90;78.29;73838.97;4965095;28;102694;-81
2023/11/04 09:36:21;;;;;;;;;3.00;2.00;;;;;-143.90;78.88;73822.44;4965027;27;104173;-81
2023/11/04 09:38:48;;;;;;;;;2.75;2.25;;;;;-143.90;78.41;73799.69;4966165;27;102571;-80
2023/11/04 09:41:15;;;;;;;;;2.00;2.00;;;;;-143.90;76.29;73770.78;4974178;27;102151;-78
2023/11/04 09:43:42;;;;;;;;;3.00;2.50;;;;;-143.90;72.89;73774.91;4973573;27;102186;-79
2023/11/04 09:46:09;;;;;;;;;5.00;2.25;;;;;-143.90;73.58;73768.69;4963693;28;104012;-83
2023/11/04 09:48:37;;;;;;;;;1.00;1.00;;;;;-143.90;73.70;73760.44;4978931;28;102249;-80
2023/11/04 09:51:12;;;;;;;;;2.00;1.00;;;;;-143.90;72.61;73754.25;4970638;27;102308;-78
2023/11/04 09:53:46;;;;;;;;;3.75;2.75;;;;;-143.90;73.07;73741.84;4976236;27;102095;-80
2023/11/04 09:56:12;;;;;;;;;1.50;1.50;;;;;-143.90;72.81;73733.56;4970961;27;104286;-80
2023/11/04 09:58:39;;;;;;;;;1.00;0.50;;;;;-143.90;71.92;73727.38;4967445;27;102411;-84
2023/11/04 10:01:06;;;;;;;;;1.00;1.00;;;;;-143.90;69.49;73737.69;4975291;27;101915;-84
2023/11/04 10:03:33;;;;;;;;;1.00;1.00;;;;;-143.90;68.17;73741.84;4972284;27;102585;-81
2023/11/04 10:06:00;;;;;;;;;0.50;0.00;;;;;-143.90;70.75;73735.63;4970348;27;111395;-83
2023/11/04 10:08:26;;;;;;;;;1.00;0.50;;;;;-143.90;69.38;73733.56;4978882;27;102504;-81
2023/11/04 10:10:53;;;;;;;;;1.00;1.00;;;;;-143.90;71.31;73725.31;4964946;27;102641;-83
2023/11/04 10:13:20;;;;;;;;;1.00;1.00;;;;;-143.90;69.26;73733.56;4977342;27;102281;-82
2023/11/04 10:15:46;;;;;;;;;1.00;1.00;;;;;-143.90;71.97;73731.50;4974986;28;104068;-80
2023/11/04 10:18:14;;;;;;;;;1.00;1.00;;;;;-143.90;71.08;73708.78;4970766;27;102449;-81
2023/11/04 10:20:41;;;;;;;;;1.00;0.50;;;;;-143.90;67.95;73698.44;4978540;27;101952;-82
2023/11/04 10:23:09;;;;;;;;;0.00;0.00;;;;;-143.90;68.63;73690.16;4975286;27;102516;-80
2023/11/04 10:25:35;;;;;;;;;1.00;0.00;;;;;-143.90;68.10;73667.44;4972990;27;104107;-77
2023/11/04 10:28:02;;;;;;;;;1.00;1.00;;;;;-143.90;68.26;73646.78;4983660;27;101901;-81
2023/11/04 10:30:29;;;;;;;;;0.00;0.00;;;;;-143.90;69.24;73624.03;4982068;27;101899;-81
2023/11/04 10:32:59;;;;;;;;;0.00;0.00;;;;;-143.90;64.23;73609.56;4974260;28;103969;-81
2023/11/04 10:35:27;;;;;;;;;0.00;0.00;;;;;-143.90;68.36;73619.91;4969242;27;104939;-82
2023/11/04 10:37:59;;;;;;;;;2.00;1.00;;;;;-143.90;64.71;73624.03;4973371;27;102345;-83
2023/11/04 10:40:26;;;;;;;;;0.00;0.00;;;;;-143.90;64.83;73642.63;4976988;27;102957;-77
2023/11/04 10:43:15;;;;;;;;;2.50;2.00;;;;;-143.90;65.70;73659.16;4978096;28;103599;-81
2023/11/04 10:45:57;;;;;;;;;2.50;1.00;;;;;-143.90;63.11;73650.91;4959743;28;109495;-80
2023/11/04 10:48:52;;;;;;;;;1.50;1.00;;;;;-143.90;60.27;73663.31;4973438;27;102642;-82
2023/11/04 10:51:31;;;;;;;;;1.25;0.75;;;;;-143.90;59.68;73642.63;4964520;27;104319;-81
2023/11/04 10:53:58;;;;;;;;;0.75;0.75;;;;;-143.90;60.37;73640.56;4954449;28;102314;-81
2023/11/04 10:56:30;;;;;;;;;1.00;1.00;;;;;-143.90;60.32;73644.69;4969634;27;104031;-79
2023/11/04 10:59:18;;;;;;;;;0.00;0.00;;;;;-143.90;60.51;73638.50;4979868;27;102040;-79
2023/11/04 11:01:46;;;;;;;;;0.25;0.00;;;;;-143.90;59.83;73621.97;4977344;28;103373;-78
2023/11/04 11:04:16;;;;;;;;;0.50;0.25;;;;;-143.90;56.98;73605.44;4984405;28;101926;-78
2023/11/04 11:06:43;;;;;;;;;1.00;0.00;;;;;-143.90;58.50;73593.03;4983043;28;104087;-80
2023/11/04 11:09:12;;;;;;;;;1.00;0.00;;;;;-143.90;57.66;73590.97;4983754;28;102815;-80